createdAt,value
2019-04-01T00:01:28.953Z,3.15
2019-04-01T00:04:00.830Z,3.04
2019-04-01T00:06:32.504Z,2.83
2019-04-01T00:09:05.605Z,2.96
2019-04-01T00:11:37.278Z,2.94
2019-04-01T00:14:08.886Z,2.98
2019-04-01T00:16:40.487Z,3.09
2019-04-01T00:19:12.102Z,3.01
2019-04-01T00:21:44.642Z,3.10
2019-04-01T00:24:17.486Z,2.94
2019-04-01T00:26:49.161Z,2.93
2019-04-01T00:29:20.772Z,2.94
2019-04-01T00:31:52.384Z,2.94
2019-04-01T00:34:24.045Z,2.80
2019-04-01T00:36:55.670Z,2.75
2019-04-01T00:39:27.413Z,2.60
2019-04-01T00:42:05.266Z,2.56
2019-04-01T00:44:40.218Z,2.50
2019-04-01T00:47:10.239Z,2.56
2019-04-01T00:49:41.884Z,2.66
2019-04-01T00:52:13.494Z,2.76
2019-04-01T00:54:45.080Z,2.77
2019-04-01T00:57:16.682Z,2.72
2019-04-01T00:59:48.295Z,2.65
2019-04-01T01:02:19.975Z,2.54
2019-04-01T01:04:51.585Z,2.48
2019-04-01T01:07:24.256Z,2.47
2019-04-01T01:09:55.947Z,2.54
2019-04-01T01:12:28.661Z,2.45
2019-04-01T01:15:00.588Z,2.37
2019-04-01T01:17:32.254Z,2.43
2019-04-01T01:20:03.980Z,2.37
2019-04-01T01:22:35.654Z,2.32
2019-04-01T01:25:07.339Z,2.36
2019-04-01T01:27:39.352Z,2.35
2019-04-01T01:30:10.953Z,2.38
2019-04-01T01:32:42.658Z,2.28
2019-04-01T01:35:14.278Z,2.36
2019-04-01T01:37:45.946Z,2.34
2019-04-01T01:40:17.609Z,2.36
2019-04-01T01:42:49.267Z,2.38
2019-04-01T01:45:21.238Z,2.41
2019-04-01T01:47:52.855Z,2.39
2019-04-01T01:50:24.532Z,2.34
2019-04-01T01:52:56.285Z,2.30
2019-04-01T01:55:28.066Z,2.19
2019-04-01T01:57:59.735Z,2.18
2019-04-01T02:00:32.094Z,2.08
2019-04-01T02:03:03.758Z,1.99
2019-04-01T02:05:35.435Z,1.90
2019-04-01T02:08:07.043Z,1.82
2019-04-01T02:10:38.651Z,1.80
2019-04-01T02:13:12.515Z,1.76
2019-04-01T02:15:44.123Z,1.75
2019-04-01T02:18:15.905Z,1.81
2019-04-01T02:20:47.567Z,1.84
2019-04-01T02:23:19.349Z,1.81
2019-04-01T02:25:51.003Z,1.78
2019-04-01T02:28:22.616Z,1.81
2019-04-01T02:30:54.496Z,1.82
2019-04-01T02:33:26.190Z,1.73
2019-04-01T02:35:57.787Z,1.69
2019-04-01T02:38:29.601Z,1.64
2019-04-01T02:41:02.196Z,1.57
2019-04-01T02:43:33.926Z,1.47
2019-04-01T02:46:05.523Z,1.46
2019-04-01T02:48:37.111Z,1.33
2019-04-01T02:51:08.723Z,1.32
2019-04-01T02:53:40.335Z,1.32
2019-04-01T02:56:12.003Z,1.38
2019-04-01T02:58:43.627Z,1.35
2019-04-01T03:01:17.648Z,1.35
2019-04-01T03:03:49.334Z,1.29
2019-04-01T03:06:20.938Z,1.14
2019-04-01T03:08:52.609Z,1.10
2019-04-01T03:11:24.225Z,1.06
2019-04-01T03:13:55.900Z,1.01
2019-04-01T03:16:27.684Z,1.09
2019-04-01T03:18:59.276Z,1.06
2019-04-01T03:21:30.891Z,1.09
2019-04-01T03:24:02.509Z,1.17
2019-04-01T03:26:34.202Z,1.16
2019-04-01T03:29:05.807Z,1.25
2019-04-01T03:31:37.581Z,1.28
2019-04-01T03:34:09.177Z,1.17
2019-04-01T03:36:40.777Z,1.15
2019-04-01T03:39:12.507Z,1.22
2019-04-01T03:41:44.314Z,1.21
2019-04-01T03:44:16.038Z,1.26
2019-04-01T03:46:47.706Z,1.27
2019-04-01T03:49:19.488Z,1.22
2019-04-01T03:51:51.098Z,1.18
2019-04-01T03:54:22.795Z,1.14
2019-04-01T03:56:54.414Z,1.08
2019-04-01T03:59:26.092Z,1.10
2019-04-01T04:01:58.042Z,1.10
2019-04-01T04:04:29.810Z,1.14
2019-04-01T04:07:01.401Z,1.16
2019-04-01T04:09:33.099Z,1.21
2019-04-01T04:12:04.855Z,1.17
2019-04-01T04:14:36.476Z,1.09
2019-04-01T04:17:08.222Z,1.05
2019-04-01T04:19:39.847Z,1.02
2019-04-01T04:22:11.454Z,1.01
2019-04-01T04:24:43.211Z,0.98
2019-04-01T04:27:14.906Z,0.95
2019-04-01T04:29:46.543Z,0.95
2019-04-01T04:32:18.203Z,0.86
2019-04-01T04:34:49.798Z,0.80
2019-04-01T04:37:21.405Z,0.85
2019-04-01T04:39:53.018Z,0.83
2019-04-01T04:42:24.715Z,0.84
2019-04-01T04:44:56.498Z,0.84
2019-04-01T04:47:28.274Z,0.86
2019-04-01T04:49:59.853Z,0.77
2019-04-01T04:52:31.496Z,0.78
2019-04-01T04:55:03.266Z,0.80
2019-04-01T04:57:34.930Z,0.85
2019-04-01T05:00:06.707Z,0.79
2019-04-01T05:02:38.381Z,0.86
2019-04-01T05:05:10.081Z,0.85
2019-04-01T05:07:41.805Z,0.93
2019-04-01T05:10:13.503Z,0.94
2019-04-01T05:12:45.184Z,0.93
2019-04-01T05:15:16.851Z,0.88
2019-04-01T05:17:48.534Z,0.92
2019-04-01T05:20:20.218Z,0.98
2019-04-01T05:22:51.905Z,0.91
2019-04-01T05:25:23.517Z,0.92
2019-04-01T05:27:55.628Z,0.82
2019-04-01T05:30:27.339Z,0.89
2019-04-01T05:32:59.084Z,0.88
2019-04-01T05:35:32.063Z,0.99
2019-04-01T05:38:03.741Z,1.04
2019-04-01T05:40:35.995Z,1.17
2019-04-01T05:43:07.621Z,1.25
2019-04-01T05:45:39.217Z,1.36
2019-04-01T05:48:11.877Z,1.42
2019-04-01T05:50:43.466Z,1.56
2019-04-01T05:53:15.141Z,1.66
2019-04-01T05:55:46.744Z,1.73
2019-04-01T05:58:18.337Z,1.82
2019-04-01T06:00:58.987Z,1.97
2019-04-01T06:03:30.599Z,1.96
2019-04-01T06:06:02.211Z,2.01
2019-04-01T06:08:34.326Z,2.18
2019-04-01T06:11:05.999Z,2.31
2019-04-01T06:13:37.671Z,2.28
2019-04-01T06:16:09.386Z,2.37
2019-04-01T06:18:41.046Z,2.47
2019-04-01T06:21:12.741Z,2.57
2019-04-01T06:23:44.351Z,2.69
2019-04-01T06:26:16.137Z,2.74
2019-04-01T06:28:47.726Z,2.87
2019-04-01T06:31:19.436Z,2.99
2019-04-01T06:33:51.050Z,3.07
2019-04-01T06:36:22.784Z,3.16
2019-04-01T06:38:54.376Z,3.26
2019-04-01T06:41:26.071Z,3.34
2019-04-01T06:43:57.983Z,3.43
2019-04-01T06:46:29.649Z,3.49
2019-04-01T06:49:01.242Z,3.58
2019-04-01T06:51:32.821Z,3.61
2019-04-01T06:54:05.475Z,3.72
2019-04-01T06:56:37.072Z,3.81
2019-04-01T06:59:08.740Z,3.91
2019-04-01T07:01:40.315Z,4.02
2019-04-01T07:04:13.355Z,4.12
2019-04-01T07:06:44.967Z,4.19
2019-04-01T07:09:16.663Z,4.30
2019-04-01T07:11:48.320Z,4.40
2019-04-01T07:14:20.368Z,4.51
2019-04-01T07:16:52.041Z,4.62
2019-04-01T07:19:24.717Z,4.77
2019-04-01T07:21:56.407Z,4.88
2019-04-01T07:24:28.384Z,4.99
2019-04-01T07:27:00.331Z,5.00
2019-04-01T07:29:32.126Z,5.09
2019-04-01T07:32:03.722Z,5.19
2019-04-01T07:34:35.508Z,5.23
2019-04-01T07:37:07.101Z,5.34
2019-04-01T07:39:38.685Z,5.47
2019-04-01T07:42:10.288Z,5.53
2019-04-01T07:44:42.050Z,5.65
2019-04-01T07:47:13.661Z,5.79
2019-04-01T07:49:45.328Z,5.92
2019-04-01T07:52:16.930Z,6.06
2019-04-01T07:54:48.537Z,6.18
2019-04-01T07:57:20.133Z,6.30
2019-04-01T07:59:51.739Z,6.40
2019-04-01T08:02:23.408Z,6.52
2019-04-01T08:04:55.062Z,6.64
2019-04-01T08:07:26.682Z,6.81
2019-04-01T08:09:58.385Z,6.96
2019-04-01T08:12:29.993Z,7.08
2019-04-01T08:15:02.198Z,7.25
2019-04-01T08:17:34.963Z,7.41
2019-04-01T08:20:06.603Z,7.58
2019-04-01T08:22:43.241Z,7.72
2019-04-01T08:25:16.976Z,7.87
2019-04-01T08:27:49.210Z,8.05
2019-04-01T08:30:20.857Z,8.11
2019-04-01T08:32:53.666Z,8.25
2019-04-01T08:35:26.695Z,8.36
2019-04-01T08:37:58.930Z,8.47
2019-04-01T08:40:31.009Z,8.60
2019-04-01T08:43:03.061Z,8.70
2019-04-01T08:45:34.860Z,8.81
2019-04-01T08:48:06.615Z,8.88
2019-04-01T08:50:38.282Z,8.99
2019-04-01T08:53:09.866Z,9.15
2019-04-01T08:55:41.600Z,9.22
2019-04-01T08:58:13.691Z,9.22
2019-04-01T09:00:45.769Z,9.34
2019-04-01T09:03:18.515Z,9.40
2019-04-01T09:05:50.230Z,9.44
2019-04-01T09:08:22.146Z,9.56
2019-04-01T09:10:53.907Z,9.70
2019-04-01T09:13:25.692Z,9.74
2019-04-01T09:15:58.101Z,9.86
2019-04-01T09:18:30.107Z,10.06
2019-04-01T09:21:02.622Z,10.29
2019-04-01T09:23:35.410Z,10.40
2019-04-01T09:26:07.342Z,10.66
2019-04-01T09:28:39.204Z,10.79
2019-04-01T09:31:15.333Z,10.85
2019-04-01T09:33:47.001Z,10.98
2019-04-01T09:36:18.804Z,11.17
2019-04-01T09:38:50.670Z,11.26
2019-04-01T09:41:22.616Z,11.37
2019-04-01T09:43:54.790Z,11.50
2019-04-01T09:46:27.668Z,11.48
2019-04-01T09:48:59.388Z,11.62
2019-04-01T09:51:31.344Z,11.84
2019-04-01T09:54:03.062Z,11.92
2019-04-01T09:56:34.665Z,12.06
2019-04-01T09:59:06.331Z,12.23
2019-04-01T10:01:38.010Z,12.52
2019-04-01T10:04:09.677Z,12.72
2019-04-01T10:06:41.363Z,12.69
2019-04-01T10:09:13.041Z,12.75
2019-04-01T10:11:44.699Z,12.81
2019-04-01T10:14:16.504Z,12.88
2019-04-01T10:16:48.778Z,13.06
2019-04-01T10:19:20.794Z,13.15
2019-04-01T10:21:53.057Z,13.24
2019-04-01T10:24:25.018Z,13.32
2019-04-01T10:26:56.826Z,13.53
2019-04-01T10:29:28.650Z,13.62
2019-04-01T10:32:00.411Z,13.88
2019-04-01T10:34:34.369Z,14.15
2019-04-01T10:37:06.557Z,14.01
2019-04-01T10:39:38.418Z,14.08
2019-04-01T10:42:10.281Z,14.28
2019-04-01T10:44:42.090Z,14.46
2019-04-01T10:47:13.783Z,14.47
2019-04-01T10:49:45.486Z,14.74
2019-04-01T10:52:17.427Z,14.90
2019-04-01T10:54:50.058Z,15.02
2019-04-01T10:57:22.276Z,15.18
2019-04-01T10:59:56.801Z,15.24
2019-04-01T11:02:29.464Z,15.61
2019-04-01T11:05:01.549Z,15.69
2019-04-01T11:07:34.038Z,15.63
2019-04-01T11:10:06.390Z,15.57
2019-04-01T11:12:38.541Z,15.62
2019-04-01T11:15:10.851Z,15.62
2019-04-01T11:17:44.044Z,15.62
2019-04-01T11:20:16.448Z,15.84
2019-04-01T11:22:48.908Z,15.96
2019-04-01T11:25:20.636Z,16.09
2019-04-01T11:27:52.477Z,15.98
2019-04-01T11:30:24.317Z,16.14
2019-04-01T11:32:56.418Z,16.15
2019-04-01T11:35:28.368Z,16.16
2019-04-01T11:38:00.300Z,16.18
2019-04-01T11:40:32.419Z,16.24
2019-04-01T11:43:05.160Z,16.35
2019-04-01T11:45:38.143Z,16.39
2019-04-01T11:48:09.957Z,16.57
2019-04-01T11:50:41.914Z,16.60
2019-04-01T11:53:13.933Z,16.44
2019-04-01T11:55:45.641Z,16.48
2019-04-01T11:58:17.268Z,16.56
2019-04-01T12:00:48.879Z,16.44
2019-04-01T12:03:20.591Z,16.58
2019-04-01T12:05:52.663Z,16.34
2019-04-01T12:08:24.417Z,16.01
2019-04-01T12:10:56.036Z,15.77
2019-04-01T12:13:28.861Z,15.57
2019-04-01T12:16:00.664Z,15.44
2019-04-01T12:18:32.448Z,15.21
2019-04-01T12:21:04.419Z,15.11
2019-04-01T12:23:36.016Z,14.93
2019-04-01T12:26:14.892Z,14.77
2019-04-01T12:28:41.012Z,14.55
2019-04-01T12:31:13.217Z,14.42
2019-04-01T12:33:44.955Z,14.40
2019-04-01T12:36:16.610Z,14.26
2019-04-01T12:38:48.546Z,14.16
2019-04-01T12:41:20.231Z,14.15
2019-04-01T12:43:51.925Z,14.02
2019-04-01T12:46:23.516Z,13.95
2019-04-01T12:48:55.209Z,13.87
2019-04-01T12:51:26.821Z,13.90
2019-04-01T12:53:58.752Z,13.80
2019-04-01T12:56:30.528Z,13.82
2019-04-01T12:59:02.216Z,13.75
2019-04-01T13:01:33.959Z,13.60
2019-04-01T13:04:05.605Z,13.57
2019-04-01T13:06:37.597Z,13.60
2019-04-01T13:09:10.941Z,13.55
2019-04-01T13:11:43.688Z,13.56
2019-04-01T13:14:15.795Z,13.53
2019-04-01T13:16:47.603Z,13.55
2019-04-01T13:19:19.487Z,13.51
2019-04-01T13:21:52.714Z,13.53
2019-04-01T13:24:24.786Z,13.43
2019-04-01T13:26:57.641Z,13.52
2019-04-01T13:29:30.034Z,13.43
2019-04-01T13:32:01.869Z,13.43
2019-04-01T13:34:35.932Z,13.37
2019-04-01T13:37:08.645Z,13.40
2019-04-01T13:39:41.174Z,13.41
2019-04-01T13:42:14.535Z,13.35
2019-04-01T13:44:47.049Z,13.26
2019-04-01T13:47:22.623Z,13.38
2019-04-01T13:49:56.336Z,13.30
2019-04-01T13:52:28.916Z,13.19
2019-04-01T13:55:00.683Z,13.30
2019-04-01T13:57:33.889Z,13.32
2019-04-01T14:00:06.131Z,13.13
2019-04-01T14:02:37.853Z,13.16
2019-04-01T14:05:10.937Z,13.15
2019-04-01T14:07:43.338Z,13.05
2019-04-01T14:10:15.696Z,12.97
2019-04-01T14:12:48.647Z,12.97
2019-04-01T14:15:20.551Z,12.90
2019-04-01T14:17:52.508Z,13.03
2019-04-01T14:20:24.500Z,13.02
2019-04-01T14:22:56.303Z,12.96
2019-04-01T14:25:27.917Z,12.91
2019-04-01T14:28:00.842Z,12.93
2019-04-01T14:30:32.783Z,12.87
2019-04-01T14:33:05.250Z,12.82
2019-04-01T14:35:37.494Z,12.74
2019-04-01T14:38:09.780Z,12.78
2019-04-01T14:40:42.224Z,12.80
2019-04-01T14:43:14.242Z,12.74
2019-04-01T14:45:46.154Z,12.73
2019-04-01T14:48:18.150Z,12.74
2019-04-01T14:50:50.356Z,12.89
2019-04-01T14:53:22.264Z,12.82
2019-04-01T14:55:54.172Z,12.71
2019-04-01T14:58:25.871Z,12.73
2019-04-01T15:00:57.898Z,12.75
2019-04-01T15:03:30.403Z,12.76
2019-04-01T15:06:03.275Z,12.76
2019-04-01T15:08:35.460Z,12.77
2019-04-01T15:11:08.617Z,12.73
2019-04-01T15:13:40.347Z,12.72
2019-04-01T15:16:12.180Z,12.75
2019-04-01T15:18:45.377Z,12.92
2019-04-01T15:21:17.997Z,13.02
2019-04-01T15:23:55.770Z,12.95
2019-04-01T15:26:29.840Z,13.08
2019-04-01T15:29:01.925Z,13.19
2019-04-01T15:31:33.885Z,13.36
2019-04-01T15:34:08.982Z,13.73
2019-04-01T15:36:39.538Z,14.29
2019-04-01T15:39:14.027Z,15.16
2019-04-01T15:41:46.124Z,16.02
2019-04-01T15:44:17.742Z,17.03
2019-04-01T15:46:49.805Z,17.84
2019-04-01T15:49:21.585Z,18.88
2019-04-01T15:51:53.789Z,19.15
2019-04-01T15:54:25.634Z,19.59
2019-04-01T15:56:58.325Z,20.37
2019-04-01T15:59:30.553Z,20.70
2019-04-01T16:02:02.364Z,21.22
2019-04-01T16:04:34.222Z,21.44
2019-04-01T16:07:06.019Z,21.18
2019-04-01T16:09:37.872Z,21.44
2019-04-01T16:12:09.685Z,21.65
2019-04-01T16:14:41.361Z,21.83
2019-04-01T16:17:13.080Z,21.88
2019-04-01T16:19:46.545Z,21.99
2019-04-01T16:22:22.066Z,22.17
2019-04-01T16:24:54.732Z,21.84
2019-04-01T16:27:27.040Z,21.86
2019-04-01T16:29:58.867Z,21.97
2019-04-01T16:32:30.705Z,22.04
2019-04-01T16:35:02.641Z,21.39
2019-04-01T16:37:34.327Z,21.43
2019-04-01T16:40:06.347Z,20.86
2019-04-01T16:42:38.227Z,20.74
2019-04-01T16:45:09.943Z,19.30
2019-04-01T16:47:41.708Z,17.96
2019-04-01T16:50:13.701Z,16.69
2019-04-01T16:52:45.666Z,15.83
2019-04-01T16:55:18.378Z,15.11
2019-04-01T16:57:50.815Z,14.36
2019-04-01T17:00:23.141Z,13.98
2019-04-01T17:02:55.158Z,13.48
2019-04-01T17:05:33.634Z,13.02
2019-04-01T17:08:05.377Z,12.70
2019-04-01T17:10:37.049Z,12.53
2019-04-01T17:13:09.447Z,12.20
2019-04-01T17:15:41.084Z,11.90
2019-04-01T17:18:14.931Z,11.46
2019-04-01T17:20:47.216Z,11.46
2019-04-01T17:23:18.976Z,11.40
2019-04-01T17:25:50.838Z,11.14
2019-04-01T17:28:22.932Z,10.94
2019-04-01T17:30:57.369Z,10.80
2019-04-01T17:33:29.977Z,10.73
2019-04-01T17:36:01.675Z,10.54
2019-04-01T17:38:33.389Z,10.34
2019-04-01T17:41:05.859Z,10.20
2019-04-01T17:43:37.469Z,10.12
2019-04-01T17:46:09.787Z,9.91
2019-04-01T17:48:44.157Z,9.96
2019-04-01T17:51:18.571Z,9.84
2019-04-01T17:53:51.252Z,9.79
2019-04-01T17:56:23.217Z,9.72
2019-04-01T17:58:56.425Z,9.66
2019-04-01T18:01:33.466Z,9.60
2019-04-01T18:04:07.166Z,9.49
2019-04-01T18:06:39.580Z,9.40
2019-04-01T18:09:13.222Z,9.29
2019-04-01T18:11:45.370Z,9.27
2019-04-01T18:14:17.005Z,9.18
2019-04-01T18:16:48.948Z,9.11
2019-04-01T18:19:20.673Z,9.03
2019-04-01T18:21:52.465Z,8.86
2019-04-01T18:24:24.310Z,8.91
2019-04-01T18:26:56.138Z,8.85
2019-04-01T18:29:27.854Z,8.75
2019-04-01T18:31:59.759Z,8.73
2019-04-01T18:34:31.551Z,8.60
2019-04-01T18:37:03.498Z,8.53
2019-04-01T18:39:47.385Z,8.51
2019-04-01T18:42:08.567Z,8.45
2019-04-01T18:44:40.368Z,8.44
2019-04-01T18:47:12.153Z,8.38
2019-04-01T18:49:45.115Z,8.27
2019-04-01T18:52:17.672Z,8.22
2019-04-01T18:54:49.422Z,8.23
2019-04-01T18:57:21.057Z,8.20
2019-04-01T18:59:53.193Z,8.24
2019-04-01T19:02:25.020Z,8.10
2019-04-01T19:04:56.864Z,8.06
2019-04-01T19:07:28.569Z,8.03
2019-04-01T19:10:06.350Z,7.97
2019-04-01T19:12:36.118Z,7.86
2019-04-01T19:15:09.967Z,7.76
2019-04-01T19:17:42.308Z,7.73
2019-04-01T19:20:15.334Z,7.65
2019-04-01T19:22:48.613Z,7.56
2019-04-01T19:25:23.236Z,7.57
2019-04-01T19:27:54.782Z,7.48
2019-04-01T19:30:26.648Z,7.53
2019-04-01T19:32:58.527Z,7.50
2019-04-01T19:35:30.798Z,7.54
2019-04-01T19:38:06.996Z,7.51
2019-04-01T19:40:38.166Z,7.45
2019-04-01T19:43:10.083Z,7.50
2019-04-01T19:45:42.381Z,7.54
2019-04-01T19:48:14.299Z,7.47
2019-04-01T19:50:46.646Z,7.40
2019-04-01T19:53:18.479Z,7.39
2019-04-01T19:55:50.205Z,7.39
2019-04-01T19:58:21.864Z,7.36
2019-04-01T20:00:53.490Z,7.29
2019-04-01T20:03:25.596Z,7.18
2019-04-01T20:05:57.933Z,7.05
2019-04-01T20:08:29.604Z,6.99
2019-04-01T20:11:01.464Z,6.95
2019-04-01T20:13:34.736Z,6.93
2019-04-01T20:16:06.400Z,6.94
2019-04-01T20:18:39.018Z,6.89
2019-04-01T20:21:11.098Z,6.77
2019-04-01T20:23:42.687Z,6.69
2019-04-01T20:26:14.268Z,6.62
2019-04-01T20:28:47.337Z,6.63
2019-04-01T20:31:20.007Z,6.51
2019-04-01T20:33:51.681Z,6.46
2019-04-01T20:36:28.682Z,6.41
2019-04-01T20:38:56.779Z,6.39
2019-04-01T20:41:28.392Z,6.47
2019-04-01T20:44:00.001Z,6.42
2019-04-01T20:46:31.929Z,6.35
2019-04-01T20:49:03.696Z,6.28
2019-04-01T20:51:35.476Z,6.35
2019-04-01T20:54:07.075Z,6.25
2019-04-01T20:56:38.762Z,6.22
2019-04-01T20:59:10.837Z,6.26
2019-04-01T21:01:42.641Z,6.22
2019-04-01T21:04:14.405Z,6.15
2019-04-01T21:06:46.030Z,6.08
2019-04-01T21:09:17.822Z,6.06
2019-04-01T21:11:49.498Z,6.00
2019-04-01T21:14:22.573Z,5.96
2019-04-01T21:16:55.217Z,5.91
2019-04-01T21:19:27.506Z,5.80
2019-04-01T21:21:59.112Z,5.73
2019-04-01T21:24:31.528Z,5.68
2019-04-01T21:27:03.225Z,5.61
2019-04-01T21:29:35.014Z,5.62
2019-04-01T21:32:06.619Z,5.54
2019-04-01T21:34:38.244Z,5.58
2019-04-01T21:37:09.859Z,5.44
2019-04-01T21:39:41.465Z,5.44
2019-04-01T21:42:13.096Z,5.48
2019-04-01T21:44:44.985Z,5.41
2019-04-01T21:47:16.599Z,5.40
2019-04-01T21:49:48.217Z,5.47
2019-04-01T21:52:19.809Z,5.43
2019-04-01T21:54:52.579Z,5.42
2019-04-01T21:57:24.177Z,5.33
2019-04-01T21:59:55.787Z,5.31
2019-04-01T22:02:35.741Z,5.22
2019-04-01T22:05:01.821Z,5.20
2019-04-01T22:07:33.617Z,5.24
2019-04-01T22:10:05.557Z,5.16
2019-04-01T22:12:37.482Z,5.05
2019-04-01T22:15:09.181Z,5.12
2019-04-01T22:17:40.857Z,5.12
2019-04-01T22:20:12.518Z,5.05
2019-04-01T22:22:44.111Z,5.02
2019-04-01T22:25:15.784Z,4.97
2019-04-01T22:27:47.384Z,5.00
2019-04-01T22:30:18.991Z,4.96
2019-04-01T22:32:51.670Z,4.90
2019-04-01T22:35:23.277Z,4.85
2019-04-01T22:37:54.976Z,4.82
2019-04-01T22:40:26.813Z,4.83
2019-04-01T22:42:58.516Z,4.71
2019-04-01T22:45:30.130Z,4.75
2019-04-01T22:48:01.878Z,4.71
2019-04-01T22:50:33.652Z,4.63
2019-04-01T22:53:05.457Z,4.62
2019-04-01T22:55:37.063Z,4.64
2019-04-01T22:58:09.687Z,4.55
2019-04-01T23:00:41.372Z,4.61
2019-04-01T23:03:14.581Z,4.62
2019-04-01T23:05:46.265Z,4.59
2019-04-01T23:08:17.954Z,4.48
2019-04-01T23:10:49.544Z,4.47
2019-04-01T23:13:21.151Z,4.47
2019-04-01T23:15:52.798Z,4.38
2019-04-01T23:18:25.383Z,4.43
2019-04-01T23:20:56.984Z,4.41
2019-04-01T23:23:28.778Z,4.27
2019-04-01T23:26:00.847Z,4.17
2019-04-01T23:28:32.694Z,4.17
2019-04-01T23:31:04.553Z,4.10
2019-04-01T23:33:36.227Z,4.10
2019-04-01T23:36:07.846Z,4.02
2019-04-01T23:38:39.574Z,4.02
2019-04-01T23:41:11.182Z,4.04
2019-04-01T23:43:42.781Z,4.04
2019-04-01T23:46:14.469Z,4.00
2019-04-01T23:48:46.091Z,3.98
2019-04-01T23:51:17.725Z,3.97
2019-04-01T23:53:49.401Z,3.89
2019-04-01T23:56:21.011Z,3.94
2019-04-01T23:58:52.714Z,3.93
